Station info - map view · info · telemetry · weather · raw · status · beacons · messages · bulletins · browse · moving · my account
Callsign, ship name or locator: Clear       
It is possible to search using wildcards (*?) after a prefix. Example: OH*
APRS station HB9FIE - show graphs
Map loading...
Comment: mini cooper 145.225
Mic-E message: Off duty
Location: 47°22.05' N 8°50.95' E - locator JN47KI18VE - show map - static map
1.4 miles West bearing 270° from Bauma, Bezirk Pfäffikon, Zurich, Switzerland [?]
3.6 miles South bearing 177° from Wila, Bezirk Pfäffikon, Zurich, Switzerland
14.0 miles East bearing 90° from Zürich, Bezirk Zürich, Zurich, Switzerland
63.5 miles Southeast bearing 133° from Freiburg, Regierungsbezirk Freiburg, Baden-Württemberg, Germany
Last position: 2018-07-02 16:08:48 EDT (19d 2h39m ago)
2018-07-02 22:08:48 CEST local time at Bauma, Switzerland [?]
Altitude: 2530 ft
Position ambiguous: Precision reduced at transmitter by 1 digits, position resolution approximately 202.3 yards.
Course: 51°
Speed: 27 MPH
Device: Yaesu: FT2D (ht)
Last path: HB9FIE>TWRRPL via WIDE1-1,WIDE2-1,qAR,HB9NF-10 (good)
Positions stored: 806
Stations near current position of HB9FIE - show more
callsign distance last heard - EDT      callsign distance last heard - EDT
hb9dtkQRV2.4 miles 263°2018-07-04 16:45:54 HB9DTK C2.4 miles 264°2018-06-28 17:57:33
HB9DTK-C2.4 miles 264°2018-06-28 17:57:43 HB9ELZ-72.7 miles 66°2018-07-09 14:33:44
HB9ELZ-92.7 miles 70°2018-07-20 18:16:50 HB9DUO3.2 miles 297°2018-07-14 12:19:08
HB9NF-103.3 miles 69°2018-07-21 18:45:36 HB9Z-RPT4.0 miles 331°2018-07-21 18:31:09
HB9BXR-B4.1 miles 231°2018-07-21 18:21:20 HB9BXR B4.1 miles 231°2018-07-21 18:21:20
HB9BXR A4.1 miles 231°2018-07-21 18:43:40 HB9BXR-A4.1 miles 231°2018-07-21 18:43:50
HB9BXR-R4.1 miles 231°2018-07-07 13:56:18 HB9BXR-N4.1 miles 231°2018-07-21 18:31:55
HB9BXR-Y4.1 miles 231°2018-07-07 14:19:06 HB3XRP4.3 miles 226°2018-07-13 16:04:16
HB3XRP-74.3 miles 225°2018-07-18 09:44:49 HB9FLQ-134.3 miles 336°2018-07-21 18:45:05
HB9KB-24.3 miles 87°2018-07-21 18:41:04 HB9AZT-94.4 miles 334°2018-07-14 09:42:57
Stations which heard HB9FIE directly on radio –
callsign pkts first heard - EDT last heard longest (tx => rx) longest at - EDT
HB9AR-4 1 2018-07-02 12:42:28 2018-07-02 12:42:28 JN36BC > JN36BE 6.3 miles 12° 2018-07-02 12:42:28
HB9BA-2 8 2018-07-02 14:31:50 2018-07-02 14:44:05 JN36RX > JN37SB 7.1 miles 29° 2018-07-02 14:31:50
HB9ZF-1 13 2018-07-02 15:41:17 2018-07-02 16:03:35 JN47GK > JN47KG 18.5 miles 122° 2018-07-02 15:41:17
F1ZWR-3 2 2018-07-02 09:14:06 2018-07-02 09:16:03 JN24JC > JN24DD 24.7 miles 277° 2018-07-02 09:16:03
HB9RF-10 1 2018-07-02 15:56:29 2018-07-02 15:56:29 JN47II > JN47GA 25.4 miles 204° 2018-07-02 15:56:29
F6KBR-4 1 2018-07-02 06:44:01 2018-07-02 06:44:01 JN12KS > JN12JT 8.0 miles 309° 2018-07-02 06:44:01
F1ZCJ-3 1 2018-07-02 07:19:06 2018-07-02 07:19:06 JN13OG > JN13FI 38.3 miles 280° 2018-07-02 07:19:06
HB4FV-4 5 2018-07-02 13:33:46 2018-07-02 13:50:04 JN36IS > JN36EQ 14.2 miles 252° 2018-07-02 13:50:04
HB9AVQ-10 4 2018-07-02 14:22:43 2018-07-02 14:32:53 JN36RX > JN36QW 5.7 miles 217° 2018-07-02 14:32:53
HB9AR-10 7 2018-07-02 12:28:11 2018-07-02 12:44:31 JN36BC > JN36BE 6.7 miles 19° 2018-07-02 12:28:11
F5GJJ-4 3 2018-07-02 10:46:06 2018-07-02 10:49:09 JN25SG > JN25SH 4.0 miles 6° 2018-07-02 10:46:06
F5ZFL-4 10 2018-07-02 12:14:01 2018-07-02 13:20:25 JN36EL > JN35BR 54.6 miles 196° 2018-07-02 13:20:25
HB9HFJ-4 3 2018-07-02 14:00:14 2018-07-02 14:04:25 JN36KT > JN36LT 3.8 miles 95° 2018-07-02 14:00:14
HB9PM-4 9 2018-07-02 14:35:57 2018-07-02 14:56:28 JN37SA > JN37SG 17.0 miles 8° 2018-07-02 14:35:57
HB9TOR-4 1 2018-07-02 13:27:34 2018-07-02 13:27:34 JN36GM > JN36GN 2.2 miles 58° 2018-07-02 13:27:34
HB9FLL-10 1 2018-07-02 13:21:23 2018-07-02 13:21:23 JN36FL > JN36CH 15.4 miles 216° 2018-07-02 13:21:23
HB9FG-4 1 2018-07-02 13:53:08 2018-07-02 13:53:08 JN36JS > JN37MB 24.0 miles 37° 2018-07-02 13:53:08
HB9NF-10 1 2018-07-02 16:08:48 2018-07-02 16:08:48 JN47KI > JN47KJ 3.3 miles 69° 2018-07-02 16:08:48
F1ZJM-3 6 2018-07-02 06:19:23 2018-07-02 06:49:57 JN12LU > JN12LL 25.8 miles 180° 2018-07-02 06:49:57
F4HTU-3 8 2018-07-02 08:20:59 2018-07-02 09:02:54 JN23HW > JN23ET 13.9 miles 238° 2018-07-02 09:02:54
HB9IPA-10 4 2018-07-02 14:06:27 2018-07-02 14:50:19 JN36MV > JN37SG 34.2 miles 42° 2018-07-02 14:06:27
HB9BHU-10 1 2018-07-02 15:06:38 2018-07-02 15:06:38 JN37WH > JN37XG 2.4 miles 133° 2018-07-02 15:06:38

Only position packets which were originated by the station are shown here. The range statistics show some extra long hops, because some digipeaters do not correctly add themselves to the digipeater path. Please check the raw packets.
About this site
This page shows real-time information collected from the Automatic Position Reporting System Internet network (APRS-IS). APRS is used by amateur (ham) radio operators to transmit real-time position information, weather data, telemetry and messages over the radio. A vehicle equipped with a GPS receiver, a VHF transmitter or HF transceiver and a small computer device called a tracker transmits it's location, speed and course in a small data packet, which is then received by a nearby iGate receiving site which forwards the packet on the Internet. Systems connected to the Internet can send information on the APRS-IS without a radio transmitter, or collect and display information transmitted anywhere in the world.
FAQ · Blog · Discussion group · Linking to aprs.fi · AIS sites · Service status · Database statistics · Advertising on aprs.fi · Technical details · API · Change log · Planned changes · Credits and thanks · Terms Of Service · iPhone/iPad APRS